Time;durP1;ratioP1;P1;durP2;ratioP2;P2;SDS_P1;SDS_P2;PMS_P1;PMS_P2;Temp;Humidity;BMP_temperature;BMP_pressure;BME280_temperature;BME280_humidity;BME280_pressure;Samples;Min_cycle;Max_cycle;Signal;HPM_P1;HPM_P2
2023/08/12 00:04:14;;;;;;;1.52;0.80;;;;;;;20.38;100.00;98703.13;15290712;19;20034;-47
2023/08/12 00:09:38;;;;;;;1.33;0.75;;;;;;;20.33;100.00;98699.13;15296436;19;20018;-50
2023/08/12 00:15:08;;;;;;;1.65;0.80;;;;;;;20.29;100.00;98695.13;15289039;19;20121;-47
2023/08/12 00:20:32;;;;;;;1.95;0.90;;;;;;;20.21;100.00;98703.59;15292177;19;20066;-47
2023/08/12 00:26:00;;;;;;;1.88;1.00;;;;;;;20.12;100.00;98691.22;15292989;19;20025;-49
2023/08/12 00:31:27;;;;;;;1.58;0.85;;;;;;;20.07;100.00;98685.56;15299207;19;20104;-45
2023/08/12 00:36:52;;;;;;;0.70;0.70;;;;;;;20.09;100.00;98677.97;15291170;19;20470;-46
2023/08/12 00:42:16;;;;;;;1.63;0.73;;;;;;;20.07;100.00;98671.88;15291848;19;20037;-45
2023/08/12 00:47:44;;;;;;;0.65;0.60;;;;;;;20.13;100.00;98671.03;15293044;19;20078;-47
2023/08/12 00:53:08;;;;;;;1.45;0.70;;;;;;;20.12;100.00;98674.81;15287800;19;20458;-45
2023/08/12 00:58:33;;;;;;;0.95;0.60;;;;;;;20.06;100.00;98671.06;15290553;19;20506;-47
2023/08/12 01:04:01;;;;;;;0.70;0.70;;;;;;;19.99;100.00;98665.63;15292655;19;20049;-47
2023/08/12 01:09:26;;;;;;;0.77;0.60;;;;;;;19.91;100.00;98668.59;15293651;19;20089;-45
2023/08/12 01:14:56;;;;;;;1.38;0.73;;;;;;;19.89;100.00;98647.97;15290766;19;20542;-46
2023/08/12 01:20:26;;;;;;;2.83;0.70;;;;;;;19.88;100.00;98652.63;15290322;19;20021;-46
2023/08/12 01:26:00;;;;;;;2.08;0.70;;;;;;;19.86;100.00;98654.72;15280914;19;20098;-48
2023/08/12 01:31:34;;;;;;;1.73;0.70;;;;;;;19.82;100.00;98646.09;15291678;19;20107;-45
2023/08/12 01:37:04;;;;;;;1.23;0.70;;;;;;;19.75;100.00;98644.44;15288265;19;20014;-47
2023/08/12 01:42:32;;;;;;;1.30;0.80;;;;;;;19.71;100.00;98635.84;15292383;19;20082;-47
2023/08/12 01:47:57;;;;;;;0.90;0.60;;;;;;;19.58;100.00;98628.50;15289131;19;20014;-46
2023/08/12 01:53:22;;;;;;;1.27;0.90;;;;;;;19.43;100.00;98636.13;15276267;19;20014;-46
2023/08/12 01:58:49;;;;;;;0.70;0.70;;;;;;;19.38;100.00;98623.94;15285118;19;20015;-48
2023/08/12 02:04:14;;;;;;;0.80;0.70;;;;;;;19.33;100.00;98621.03;15287608;19;20022;-48
2023/08/12 02:09:39;;;;;;;2.13;0.88;;;;;;;19.30;100.00;98613.25;15291278;19;20022;-47
2023/08/12 02:15:08;;;;;;;3.40;0.70;;;;;;;19.28;100.00;98626.25;15284558;19;20025;-49
2023/08/12 02:20:32;;;;;;;1.27;0.85;;;;;;;19.24;100.00;98616.81;15290710;19;20027;-46
2023/08/12 02:26:04;;;;;;;0.70;0.70;;;;;;;19.26;100.00;98601.06;15273695;19;20564;-50
2023/08/12 02:31:34;;;;;;;1.42;0.70;;;;;;;19.30;100.00;98599.59;15289076;19;20022;-50
2023/08/12 02:36:58;;;;;;;2.30;0.90;;;;;;;19.33;100.00;98590.13;15286389;19;20025;-46
2023/08/12 02:42:23;;;;;;;1.60;0.80;;;;;;;19.37;100.00;98580.44;15288028;19;20020;-47
2023/08/12 02:47:50;;;;;;;0.98;0.65;;;;;;;19.39;100.00;98579.16;15287622;19;20021;-49
2023/08/12 02:53:15;;;;;;;1.67;0.80;;;;;;;19.40;100.00;98580.84;15285362;19;20101;-48
2023/08/12 02:58:40;;;;;;;2.28;0.75;;;;;;;19.42;100.00;98583.34;15277129;19;20034;-46
2023/08/12 03:04:08;;;;;;;1.13;0.70;;;;;;;19.40;100.00;98567.19;15284100;19;20089;-46
2023/08/12 03:09:32;;;;;;;1.65;0.80;;;;;;;19.34;100.00;98564.47;15286977;19;20018;-49
2023/08/12 03:14:57;;;;;;;0.70;0.68;;;;;;;19.26;100.00;98562.81;15282795;19;20021;-47
2023/08/12 03:20:24;;;;;;;1.20;0.75;;;;;;;19.19;100.00;98572.94;15285064;19;20018;-45
2023/08/12 03:25:50;;;;;;;1.58;0.88;;;;;;;19.11;100.00;98565.78;15288435;19;20026;-47
2023/08/12 03:31:15;;;;;;;0.93;0.77;;;;;;;19.04;100.00;98565.81;15293473;19;20371;-45
2023/08/12 03:36:45;;;;;;;1.65;0.90;;;;;;;18.89;100.00;98573.34;15292676;19;20015;-47
2023/08/12 03:42:11;;;;;;;2.90;0.90;;;;;;;18.82;100.00;98569.78;15297789;19;20022;-46
2023/08/12 03:47:36;;;;;;;2.08;0.95;;;;;;;18.75;100.00;98559.75;15292765;19;20010;-46
2023/08/12 03:53:04;;;;;;;1.17;0.82;;;;;;;18.70;100.00;98556.78;15298025;19;20022;-48
2023/08/12 03:58:28;;;;;;;2.03;0.98;;;;;;;18.68;100.00;98555.31;15293148;19;20114;-45
2023/08/12 04:03:53;;;;;;;2.55;1.00;;;;;;;18.61;100.00;98555.31;15286192;19;20541;-46
2023/08/12 04:09:21;;;;;;;2.00;0.90;;;;;;;18.54;100.00;98560.78;15298911;19;20021;-48
2023/08/12 04:14:46;;;;;;;3.42;1.00;;;;;;;18.51;100.00;98571.28;15293741;19;20045;-47
2023/08/12 04:20:16;;;;;;;0.95;0.90;;;;;;;18.54;100.00;98566.25;15292689;19;20534;-46
2023/08/12 04:25:44;;;;;;;1.98;0.70;;;;;;;18.58;100.00;98563.94;15282485;19;20014;-55
2023/08/12 04:31:11;;;;;;;1.95;0.95;;;;;;;18.63;100.00;98564.97;15289033;19;20047;-55
2023/08/12 04:36:36;;;;;;;0.98;0.90;;;;;;;18.69;100.00;98565.19;15285532;19;20014;-55
2023/08/12 04:42:04;;;;;;;3.78;0.90;;;;;;;18.73;100.00;98570.03;15297494;19;20006;-54
2023/08/12 04:47:31;;;;;;;1.73;0.90;;;;;;;18.78;100.00;98567.47;15293356;19;20018;-54
2023/08/12 04:52:58;;;;;;;1.13;0.90;;;;;;;18.86;100.00;98558.25;15294668;19;20512;-53
2023/08/12 04:58:26;;;;;;;0.73;0.73;;;;;;;18.97;100.00;98553.22;15293702;19;20023;-53
2023/08/12 05:03:54;;;;;;;1.38;0.90;;;;;;;19.04;100.00;98556.78;15289376;19;20022;-53
2023/08/12 05:09:18;;;;;;;0.88;0.85;;;;;;;19.11;100.00;98560.34;15290068;19;20492;-51
2023/08/12 05:14:46;;;;;;;1.52;0.90;;;;;;;19.21;100.00;98554.44;15294607;19;20090;-53
2023/08/12 05:20:13;;;;;;;1.35;0.90;;;;;;;19.31;100.00;98559.44;15289812;19;20481;-54
2023/08/12 05:25:37;;;;;;;1.10;1.00;;;;;;;19.45;100.00;98552.88;15289555;19;20014;-54
2023/08/12 05:31:07;;;;;;;0.82;0.82;;;;;;;19.53;100.00;98551.81;15297350;19;20027;-57
2023/08/12 05:36:33;;;;;;;1.15;0.80;;;;;;;19.67;100.00;98552.56;15287145;19;20021;-57
2023/08/12 05:41:58;;;;;;;1.08;0.95;;;;;;;19.82;100.00;98549.53;15287348;19;20014;-53
2023/08/12 05:47:25;;;;;;;1.85;0.90;;;;;;;20.01;100.00;98554.13;15287572;19;20011;-56
2023/08/12 05:52:50;;;;;;;1.85;0.80;;;;;;;20.17;100.00;98554.63;15291142;19;20025;-58
2023/08/12 05:58:14;;;;;;;1.35;0.82;;;;;;;20.30;100.00;98551.81;15290522;19;20021;-56
2023/08/12 06:03:42;;;;;;;1.38;0.68;;;;;;;20.44;100.00;98546.25;15286667;19;20015;-52
2023/08/12 06:09:07;;;;;;;2.78;0.90;;;;;;;20.57;100.00;98546.13;15288552;19;20069;-51
2023/08/12 06:14:35;;;;;;;3.05;0.80;;;;;;;20.67;100.00;98545.66;15282836;19;20015;-54
2023/08/12 06:20:02;;;;;;;1.08;0.80;;;;;;;20.78;100.00;98541.34;15288828;19;20011;-51
2023/08/12 06:25:29;;;;;;;1.95;0.70;;;;;;;20.90;100.00;98531.34;15286326;19;20037;-56
2023/08/12 06:30:55;;;;;;;0.80;0.75;;;;;;;21.03;100.00;98527.63;15290512;19;20050;-55
2023/08/12 06:36:28;;;;;;;2.92;0.70;;;;;;;21.18;100.00;98524.53;15287353;19;20078;-50
2023/08/12 06:41:55;;;;;;;1.85;0.82;;;;;;;21.34;100.00;98530.47;15284800;19;20011;-57
2023/08/12 06:47:20;;;;;;;1.52;0.70;;;;;;;21.48;100.00;98531.94;15288237;19;20018;-55
2023/08/12 06:52:47;;;;;;;1.25;0.70;;;;;;;21.63;100.00;98522.53;15292614;19;20020;-54
2023/08/12 06:58:13;;;;;;;1.15;0.70;;;;;;;21.72;100.00;98523.88;15287232;19;20053;-52
2023/08/12 07:03:37;;;;;;;1.60;0.85;;;;;;;21.82;100.00;98524.16;15287684;19;20014;-52
2023/08/12 07:09:05;;;;;;;1.58;0.90;;;;;;;21.84;100.00;98535.75;15289328;19;20025;-50
2023/08/12 07:14:30;;;;;;;2.00;1.02;;;;;;;21.72;100.00;98529.38;15282649;19;20021;-51
2023/08/12 07:19:57;;;;;;;1.63;0.90;;;;;;;21.62;100.00;98534.56;15276268;19;20015;-56
2023/08/12 07:25:31;;;;;;;2.50;0.85;;;;;;;21.40;100.00;98546.81;14774762;19;9999908;-56
2023/08/12 07:30:56;;;;;;;2.42;1.00;;;;;;;20.96;100.00;98539.72;15285183;19;20044;-55
2023/08/12 07:36:21;;;;;;;1.15;0.80;;;;;;;20.71;100.00;98533.16;15278940;19;20018;-53
2023/08/12 07:41:48;;;;;;;1.25;0.90;;;;;;;20.62;100.00;98532.63;15286940;19;20030;-53
2023/08/12 07:47:15;;;;;;;2.53;1.02;;;;;;;20.59;100.00;98526.75;15276475;19;20014;-53
2023/08/12 07:52:40;;;;;;;1.98;1.00;;;;;;;20.62;100.00;98543.59;15283345;19;20030;-54
2023/08/12 07:58:07;;;;;;;1.83;1.02;;;;;;;20.67;100.00;98550.25;15280209;19;20018;-54
2023/08/12 08:03:32;;;;;;;1.17;1.00;;;;;;;20.77;100.00;98540.53;15284714;19;20010;-55
2023/08/12 08:08:57;;;;;;;1.08;0.95;;;;;;;20.92;100.00;98536.59;15285362;19;20585;-54
2023/08/12 08:14:24;;;;;;;0.98;0.90;;;;;;;21.10;100.00;98538.53;15294809;19;20018;-53
2023/08/12 08:19:49;;;;;;;3.30;0.90;;;;;;;21.34;100.00;98544.16;15288936;19;20022;-58
2023/08/12 08:25:14;;;;;;;1.85;1.00;;;;;;;21.53;100.00;98542.22;15289999;19;20037;-57
2023/08/12 08:30:41;;;;;;;1.80;1.15;;;;;;;21.67;100.00;98541.03;15299877;19;20017;-58
2023/08/12 08:36:06;;;;;;;1.58;0.88;;;;;;;21.82;100.00;98518.69;15295550;19;20014;-56
2023/08/12 08:41:33;;;;;;;1.42;1.00;;;;;;;21.88;100.00;98527.88;15294278;19;20393;-57
2023/08/12 08:47:01;;;;;;;1.13;1.02;;;;;;;21.81;100.00;98538.13;15293337;19;20023;-58
2023/08/12 08:52:28;;;;;;;1.73;1.02;;;;;;;21.76;100.00;98540.69;15286520;19;20006;-59
2023/08/12 08:57:52;;;;;;;1.73;1.10;;;;;;;21.70;100.00;98536.97;15291540;19;20021;-55
2023/08/12 09:03:25;;;;;;;1.58;1.00;;;;;;;21.68;100.00;98542.72;15295086;19;20021;-55
2023/08/12 09:08:53;;;;;;;1.48;1.10;;;;;;;21.68;100.00;98534.47;15295902;19;20530;-57
2023/08/12 09:14:18;;;;;;;1.08;0.90;;;;;;;21.66;100.00;98546.75;15294054;19;20018;-58
2023/08/12 09:19:45;;;;;;;1.20;0.90;;;;;;;21.65;100.00;98545.91;15292673;19;20053;-57
2023/08/12 09:25:11;;;;;;;1.00;0.93;;;;;;;21.58;100.00;98560.75;15280148;19;20011;-55
2023/08/12 09:30:36;;;;;;;4.28;1.05;;;;;;;21.57;100.00;98539.88;15296571;19;20023;-57
2023/08/12 09:36:04;;;;;;;1.33;0.90;;;;;;;21.56;100.00;98541.78;15291715;19;20010;-55
2023/08/12 09:41:30;;;;;;;1.77;0.82;;;;;;;21.60;100.00;98525.72;15288747;19;20475;-57
2023/08/12 09:46:55;;;;;;;1.10;1.00;;;;;;;21.56;100.00;98536.28;15289090;19;20014;-54
2023/08/12 09:52:22;;;;;;;1.05;0.88;;;;;;;21.67;100.00;98530.06;15291042;19;20019;-56
2023/08/12 09:57:52;;;;;;;1.13;1.02;;;;;;;21.77;100.00;98523.19;15278881;19;20363;-56
2023/08/12 10:03:20;;;;;;;1.73;0.90;;;;;;;21.83;100.00;98514.88;15289821;19;20477;-53
2023/08/12 10:08:47;;;;;;;1.98;1.00;;;;;;;21.91;100.00;98519.19;15293052;19;20074;-54
2023/08/12 10:14:12;;;;;;;1.50;1.10;;;;;;;21.99;100.00;98518.03;15290746;19;20012;-54
2023/08/12 10:19:38;;;;;;;1.85;0.90;;;;;;;22.06;100.00;98513.28;15289620;19;20809;-55
2023/08/12 10:25:14;;;;;;;1.88;1.17;;;;;;;22.07;100.00;98501.22;15275659;19;20010;-50
2023/08/12 10:30:39;;;;;;;1.48;0.95;;;;;;;22.20;100.00;98491.13;15276099;19;20029;-47
2023/08/12 10:36:05;;;;;;;1.45;1.00;;;;;;;22.36;100.00;98498.69;15281038;19;20838;-50
2023/08/12 10:41:38;;;;;;;1.95;0.90;;;;;;;22.55;100.00;98490.38;15283470;19;20014;-51
2023/08/12 10:47:03;;;;;;;1.77;1.00;;;;;;;22.76;100.00;98492.50;15284232;19;20014;-47
2023/08/12 10:52:30;;;;;;;1.77;1.10;;;;;;;23.01;100.00;98490.59;15284881;19;20019;-50
2023/08/12 10:57:59;;;;;;;1.40;0.90;;;;;;;23.22;100.00;98487.25;15276300;19;20014;-49
2023/08/12 11:03:24;;;;;;;1.48;1.00;;;;;;;23.47;100.00;98466.00;15276397;19;20014;-49
2023/08/12 11:08:55;;;;;;;1.52;0.80;;;;;;;23.75;100.00;98445.09;15284248;19;20018;-51
2023/08/12 11:14:26;;;;;;;;;;;;;;;24.24;100.00;98420.66;15285044;19;20020;-52
2023/08/12 11:19:51;;;;;;;1.27;0.60;;;;;;;24.64;100.00;98412.44;15281942;19;19925;-51
2023/08/12 11:25:16;;;;;;;0.68;0.68;;;;;;;24.85;100.00;98414.41;15282173;19;20032;-51
2023/08/12 11:30:45;;;;;;;1.55;0.80;;;;;;;25.09;100.00;98408.66;15281232;19;20074;-52
2023/08/12 11:36:10;;;;;;;1.13;0.68;;;;;;;25.44;100.00;98399.16;15274178;19;20035;-50
2023/08/12 11:41:36;;;;;;;1.10;0.60;;;;;;;25.82;100.00;98396.47;15279098;19;20019;-50
2023/08/12 11:47:04;;;;;;;0.80;0.70;;;;;;;26.17;100.00;98378.56;15282707;19;20025;-50
2023/08/12 11:52:30;;;;;;;2.40;0.70;;;;;;;26.43;100.00;98365.75;15298371;19;20031;-51
2023/08/12 11:57:55;;;;;;;0.63;0.63;;;;;;;26.80;100.00;98357.69;15292086;19;20406;-51
2023/08/12 12:03:22;;;;;;;2.15;0.60;;;;;;;27.25;100.00;98347.88;15293058;19;20033;-48
2023/08/12 12:08:47;;;;;;;2.53;0.60;;;;;;;27.46;100.00;98337.75;15290740;19;20022;-50
2023/08/12 12:14:13;;;;;;;2.30;0.60;;;;;;;27.48;100.00;98342.97;15298226;19;20362;-50
2023/08/12 12:19:43;;;;;;;0.70;0.50;;;;;;;27.53;100.00;98343.81;15295901;19;20007;-50
2023/08/12 12:25:18;;;;;;;1.13;0.57;;;;;;;27.75;100.00;98340.00;15295568;19;20102;-51
2023/08/12 12:30:43;;;;;;;1.50;0.60;;;;;;;28.07;100.00;98324.16;15297636;19;20013;-49
2023/08/12 12:36:11;;;;;;;1.85;0.50;;;;;;;28.35;100.00;98319.97;15288852;19;20014;-49
2023/08/12 12:41:36;;;;;;;1.52;0.47;;;;;;;28.33;100.00;98313.91;15282496;19;20018;-46
2023/08/12 12:47:02;;;;;;;2.55;0.70;;;;;;;28.30;100.00;98323.59;15293202;19;20019;-48
2023/08/12 12:52:31;;;;;;;0.55;0.55;;;;;;;28.35;100.00;98308.91;15288341;19;20026;-49
2023/08/12 12:57:58;;;;;;;1.33;0.70;;;;;;;28.44;100.00;98314.69;15282213;19;20161;-49
2023/08/12 13:03:23;;;;;;;1.38;0.80;;;;;;;28.50;100.00;98308.06;15284870;19;20026;-52
2023/08/12 13:08:50;;;;;;;2.88;0.60;;;;;;;28.57;100.00;98316.88;15290119;19;20014;-51
2023/08/12 13:14:16;;;;;;;0.90;0.60;;;;;;;28.58;100.00;98318.53;15287496;19;20351;-50
2023/08/12 13:19:41;;;;;;;0.75;0.60;;;;;;;28.61;100.00;98317.13;15294046;19;20021;-49
2023/08/12 13:25:09;;;;;;;1.00;0.80;;;;;;;28.80;100.00;98317.38;15292356;19;20019;-49
2023/08/12 13:30:33;;;;;;;2.15;0.60;;;;;;;29.21;100.00;98308.84;15295267;19;20010;-51
2023/08/12 13:35:58;;;;;;;0.75;0.68;;;;;;;29.47;100.00;98314.25;15291417;19;20016;-50
2023/08/12 13:41:25;;;;;;;0.60;0.60;;;;;;;29.56;100.00;98296.97;15287033;19;20028;-49
2023/08/12 13:46:51;;;;;;;0.88;0.52;;;;;;;29.50;95.32;98302.56;15285178;19;20014;-47
2023/08/12 13:52:15;;;;;;;1.08;0.60;;;;;;;29.46;99.59;98290.38;15293076;19;20034;-48
2023/08/12 13:57:42;;;;;;;1.02;0.70;;;;;;;29.32;95.27;98308.78;15287561;19;20473;-46
2023/08/12 14:03:07;;;;;;;1.88;0.80;;;;;;;29.15;100.00;98312.75;15288752;19;20028;-46
2023/08/12 14:08:32;;;;;;;1.90;0.65;;;;;;;28.88;100.00;98316.78;15284882;19;20046;-52
2023/08/12 14:13:59;;;;;;;1.30;0.70;;;;;;;28.71;100.00;98316.28;15288153;19;20070;-51
2023/08/12 14:19:24;;;;;;;0.90;0.80;;;;;;;28.37;100.00;98305.88;15290403;19;20020;-48
2023/08/12 14:24:51;;;;;;;1.25;0.70;;;;;;;28.04;100.00;98306.19;15289509;19;20026;-49
2023/08/12 14:30:21;;;;;;;1.52;0.75;;;;;;;27.67;100.00;98316.44;15293161;19;20078;-48
2023/08/12 14:35:45;;;;;;;2.92;0.70;;;;;;;27.28;100.00;98314.16;15288867;19;20017;-49
2023/08/12 14:41:10;;;;;;;1.00;0.77;;;;;;;26.65;100.00;98312.28;15289316;19;20014;-51
2023/08/12 14:46:37;;;;;;;0.90;0.70;;;;;;;26.26;100.00;98318.16;15277895;19;20014;-50
2023/08/12 14:52:02;;;;;;;1.17;0.80;;;;;;;25.80;100.00;98335.19;15288600;19;20016;-53
2023/08/12 14:57:27;;;;;;;1.35;0.80;;;;;;;25.31;100.00;98366.44;15286737;19;20031;-54
2023/08/12 15:02:54;;;;;;;0.90;0.90;;;;;;;24.59;100.00;98407.66;15286329;19;20011;-47
2023/08/12 15:13:52;;;;;;;2.78;1.10;;;;;;;23.70;100.00;98432.91;15235554;19;20011;-54
2023/08/12 15:19:19;;;;;;;3.25;1.23;;;;;;;23.45;100.00;98433.25;15285965;19;20018;-55
2023/08/12 15:24:44;;;;;;;1.92;1.10;;;;;;;23.13;100.00;98443.84;15291236;19;20014;-47
2023/08/12 15:30:10;;;;;;;2.42;1.33;;;;;;;23.03;100.00;98395.84;15286655;19;20019;-54
2023/08/12 15:35:37;;;;;;;2.35;1.27;;;;;;;22.78;100.00;98361.28;15289969;19;20082;-51
2023/08/12 15:41:03;;;;;;;1.75;1.13;;;;;;;22.67;100.00;98399.75;15284622;19;20026;-49
2023/08/12 15:46:28;;;;;;;1.67;1.20;;;;;;;22.47;100.00;98412.78;15288872;19;20373;-49
2023/08/12 15:51:55;;;;;;;2.45;1.42;;;;;;;22.25;100.00;98444.63;15285631;19;20414;-54
2023/08/12 15:57:20;;;;;;;3.33;1.50;;;;;;;22.07;100.00;98478.47;15288732;19;20133;-57
2023/08/12 16:02:45;;;;;;;2.85;1.50;;;;;;;21.89;100.00;98520.50;15284701;19;20010;-55
2023/08/12 16:08:12;;;;;;;3.70;1.23;;;;;;;21.80;100.00;98509.00;15289234;19;20025;-50
2023/08/12 16:13:38;;;;;;;1.52;1.00;;;;;;;21.80;100.00;98496.16;15280917;19;20082;-48
2023/08/12 16:19:02;;;;;;;1.83;0.90;;;;;;;22.29;100.00;98484.22;15284076;19;20035;-57
2023/08/12 16:24:29;;;;;;;1.13;0.90;;;;;;;23.09;100.00;98449.84;15285179;19;20035;-50
2023/08/12 16:29:54;;;;;;;1.30;0.85;;;;;;;23.30;100.00;98436.56;15284183;19;20028;-48
2023/08/12 16:35:19;;;;;;;2.25;1.00;;;;;;;23.29;100.00;98431.28;15300268;19;20011;-50
2023/08/12 16:40:46;;;;;;;2.40;1.00;;;;;;;23.24;100.00;98443.88;15298252;19;20014;-50
2023/08/12 16:46:11;;;;;;;1.45;0.80;;;;;;;23.23;100.00;98439.44;15301230;19;20035;-48
2023/08/12 16:51:36;;;;;;;1.40;1.30;;;;;;;23.77;100.00;98437.44;15292801;19;20097;-53
2023/08/12 16:57:03;;;;;;;1.20;0.95;;;;;;;24.28;100.00;98398.94;15301138;19;20074;-50
2023/08/12 17:02:28;;;;;;;1.52;0.90;;;;;;;24.45;100.00;98382.41;15294167;19;20501;-50
2023/08/12 17:07:53;;;;;;;1.48;0.80;;;;;;;24.56;100.00;98391.66;15296367;19;20018;-60
2023/08/12 17:13:20;;;;;;;1.85;0.70;;;;;;;24.76;100.00;98399.38;15293392;19;20472;-53
2023/08/12 17:18:46;;;;;;;2.38;0.90;;;;;;;24.80;100.00;98391.47;15299343;19;20499;-49
2023/08/12 17:24:11;;;;;;;1.25;0.88;;;;;;;24.96;100.00;98386.97;15288637;19;20376;-54
2023/08/12 17:29:38;;;;;;;1.65;0.82;;;;;;;25.00;100.00;98382.59;15297196;19;20078;-55
2023/08/12 17:35:03;;;;;;;2.25;0.85;;;;;;;24.67;100.00;98379.69;15297376;19;20006;-55
2023/08/12 17:40:28;;;;;;;1.17;0.80;;;;;;;24.33;100.00;98401.78;15292883;19;20547;-50
2023/08/12 17:45:55;;;;;;;1.45;0.80;;;;;;;23.96;100.00;98411.38;15295969;19;20021;-55
2023/08/12 17:51:21;;;;;;;1.08;0.60;;;;;;;23.88;100.00;98421.91;15292698;19;20500;-54
2023/08/12 17:56:45;;;;;;;1.23;0.70;;;;;;;23.71;100.00;98422.75;15292791;19;20022;-56
2023/08/12 18:02:12;;;;;;;1.02;0.70;;;;;;;23.49;100.00;98431.69;15291848;19;20050;-52
2023/08/12 18:07:37;;;;;;;1.00;0.80;;;;;;;23.36;100.00;98432.00;15295999;19;20471;-49
2023/08/12 18:13:08;;;;;;;1.73;0.80;;;;;;;23.22;100.00;98451.50;15288189;19;20018;-53
2023/08/12 18:18:35;;;;;;;0.82;0.77;;;;;;;23.02;100.00;98454.63;15295322;19;20010;-50
2023/08/12 18:24:00;;;;;;;0.88;0.70;;;;;;;22.85;100.00;98448.22;15290361;19;20018;-55
2023/08/12 18:29:25;;;;;;;0.90;0.68;;;;;;;22.53;100.00;98465.03;15289157;19;20623;-52
2023/08/12 18:34:53;;;;;;;0.80;0.60;;;;;;;22.35;100.00;98476.94;15291814;19;20020;-52
2023/08/12 18:40:18;;;;;;;0.88;0.70;;;;;;;22.22;100.00;98478.00;15290480;19;20018;-54
2023/08/12 18:45:43;;;;;;;2.85;0.80;;;;;;;22.19;100.00;98481.22;15294010;19;20006;-51
2023/08/12 18:51:10;;;;;;;3.63;0.75;;;;;;;22.17;100.00;98476.78;15289103;19;20454;-54
2023/08/12 18:56:35;;;;;;;1.38;0.75;;;;;;;22.11;100.00;98494.22;15290899;19;20090;-54
2023/08/12 19:02:00;;;;;;;0.73;0.60;;;;;;;22.06;100.00;98488.56;15283030;19;20025;-53
2023/08/12 19:07:27;;;;;;;0.57;0.55;;;;;;;22.04;100.00;98489.91;15289160;19;20014;-54
2023/08/12 19:12:52;;;;;;;0.95;0.55;;;;;;;22.00;100.00;98508.75;15282388;19;20540;-55
2023/08/12 19:18:16;;;;;;;1.23;0.80;;;;;;;21.89;100.00;98515.03;15289586;19;20017;-53
2023/08/12 19:23:43;;;;;;;1.00;0.75;;;;;;;21.82;100.00;98518.69;15277276;19;20014;-50
2023/08/12 19:29:08;;;;;;;1.52;0.77;;;;;;;21.78;100.00;98531.19;15287054;19;20011;-48
2023/08/12 19:34:33;;;;;;;1.08;0.80;;;;;;;21.75;100.00;98533.56;15279387;19;20014;-50
2023/08/12 19:40:00;;;;;;;1.17;0.80;;;;;;;21.74;100.00;98540.94;15274964;19;20052;-52
2023/08/12 19:45:25;;;;;;;1.38;0.90;;;;;;;21.67;100.00;98554.75;15271340;19;20017;-51
2023/08/12 19:50:52;;;;;;;1.73;0.82;;;;;;;21.58;100.00;98549.78;15281239;19;20023;-52
2023/08/12 19:56:21;;;;;;;1.58;0.80;;;;;;;21.46;100.00;98564.22;15285014;19;20010;-49
2023/08/12 20:01:46;;;;;;;2.50;0.80;;;;;;;21.37;100.00;98562.88;15278996;19;20014;-48
2023/08/12 20:07:11;;;;;;;2.67;0.90;;;;;;;21.27;100.00;98584.50;15282005;19;20341;-51
2023/08/12 20:12:38;;;;;;;2.97;1.00;;;;;;;21.14;100.00;98600.00;15291236;19;20046;-53
2023/08/12 20:18:03;;;;;;;1.90;0.90;;;;;;;21.05;100.00;98593.97;15297652;19;20021;-52
2023/08/12 20:23:27;;;;;;;1.88;1.00;;;;;;;20.98;100.00;98601.41;15290827;19;20097;-50
2023/08/12 20:28:55;;;;;;;1.80;1.00;;;;;;;20.94;100.00;98590.09;15296706;19;20015;-48
2023/08/12 20:34:20;;;;;;;1.58;1.08;;;;;;;20.87;100.00;98594.78;15294452;19;20011;-48
2023/08/12 20:39:45;;;;;;;1.25;0.75;;;;;;;20.82;100.00;98583.66;15288744;19;20440;-50
2023/08/12 20:45:14;;;;;;;1.35;1.00;;;;;;;20.76;100.00;98577.19;15289158;19;20014;-54
2023/08/12 20:50:39;;;;;;;3.13;1.10;;;;;;;20.70;100.00;98588.97;15292834;19;20022;-54
2023/08/12 20:56:03;;;;;;;1.85;1.10;;;;;;;20.62;100.00;98583.78;15297326;19;20014;-50
2023/08/12 21:01:32;;;;;;;1.60;1.20;;;;;;;20.59;100.00;98579.59;15290974;19;20018;-49
2023/08/12 21:06:58;;;;;;;2.50;1.30;;;;;;;20.58;100.00;98574.38;15296222;19;20010;-53
2023/08/12 21:12:23;;;;;;;1.63;1.30;;;;;;;20.55;100.00;98574.81;15261700;19;20069;-49
2023/08/12 21:17:51;;;;;;;1.42;1.20;;;;;;;20.50;100.00;98582.81;15294059;19;20019;-51
2023/08/12 21:23:16;;;;;;;3.42;1.30;;;;;;;20.43;100.00;98600.16;15243157;19;20010;-49
2023/08/12 21:28:47;;;;;;;3.30;1.48;;;;;;;20.36;100.00;98613.00;15273014;19;20018;-55
2023/08/12 21:34:15;;;;;;;1.55;1.40;;;;;;;20.27;100.00;98622.56;15293807;19;20019;-59
2023/08/12 21:39:39;;;;;;;1.77;1.42;;;;;;;20.21;100.00;98632.47;15295137;19;20015;-57
2023/08/12 21:45:04;;;;;;;3.40;1.38;;;;;;;20.13;100.00;98640.94;15284407;19;20030;-57
2023/08/12 21:50:31;;;;;;;2.72;1.40;;;;;;;20.11;100.00;98645.78;15292236;19;20474;-58
2023/08/12 21:55:56;;;;;;;2.17;1.30;;;;;;;20.05;100.00;98663.91;15290093;19;20018;-57
2023/08/12 22:01:20;;;;;;;1.25;1.10;;;;;;;19.99;100.00;98673.81;15291948;19;20019;-59
2023/08/12 22:06:48;;;;;;;2.58;1.10;;;;;;;19.93;100.00;98679.31;15292033;19;20018;-59
2023/08/12 22:12:14;;;;;;;2.25;1.27;;;;;;;19.91;100.00;98684.16;15287385;19;20018;-59
2023/08/12 22:17:39;;;;;;;1.20;0.90;;;;;;;19.90;100.00;98680.59;15283752;19;20014;-59
2023/08/12 22:23:07;;;;;;;1.73;1.10;;;;;;;19.88;100.00;98700.97;15287606;19;20499;-55
2023/08/12 22:28:34;;;;;;;1.92;1.10;;;;;;;19.88;100.00;98693.63;15284175;19;20011;-62
2023/08/12 22:33:59;;;;;;;1.73;0.88;;;;;;;19.88;100.00;98707.31;15288513;19;20010;-54
2023/08/12 22:39:27;;;;;;;0.95;0.80;;;;;;;19.89;100.00;98714.47;15286272;19;20026;-58
2023/08/12 22:44:51;;;;;;;1.35;0.85;;;;;;;19.89;100.00;98713.59;15285565;19;20494;-56
2023/08/12 22:50:16;;;;;;;1.83;1.05;;;;;;;19.89;100.00;98703.53;15283714;19;20396;-57
2023/08/12 22:55:44;;;;;;;1.60;0.90;;;;;;;19.90;100.00;98702.47;15287972;19;20031;-57
2023/08/12 23:01:09;;;;;;;2.33;1.05;;;;;;;19.92;100.00;98707.72;15284656;19;20023;-55
2023/08/12 23:06:33;;;;;;;1.00;0.90;;;;;;;19.91;100.00;98701.41;15286803;19;20024;-59
2023/08/12 23:12:01;;;;;;;1.48;0.90;;;;;;;19.88;100.00;98701.84;15287328;19;20010;-54
2023/08/12 23:17:25;;;;;;;1.40;0.90;;;;;;;19.85;100.00;98692.16;15283243;19;20700;-57
2023/08/12 23:22:50;;;;;;;1.98;0.93;;;;;;;19.82;100.00;98702.66;15279374;19;20229;-57
2023/08/12 23:28:24;;;;;;;1.88;0.90;;;;;;;19.75;100.00;98699.09;15285667;19;20026;-56
2023/08/12 23:33:49;;;;;;;1.90;0.95;;;;;;;19.67;100.00;98690.09;15286045;19;20358;-55
2023/08/12 23:39:14;;;;;;;1.67;0.80;;;;;;;19.63;100.00;98699.75;15284281;19;20022;-56
2023/08/12 23:44:35;;;;;;;2.35;0.90;;;;;;;19.60;100.00;98715.75;15322738;19;20098;-59
2023/08/12 23:50:06;;;;;;;1.20;0.90;;;;;;;19.56;100.00;98713.44;15306379;19;20033;-57
2023/08/12 23:55:32;;;;;;;3.08;0.90;;;;;;;19.55;100.00;98713.66;15297261;19;20017;-57
